sensor_id;sensor_type;location;lat;lon;timestamp;P1;durP1;ratioP1;P2;durP2;ratioP2
39948;SDS011;29070;48.102;-1.652;2023-05-10T00:02:51;9.87;;;2.53;;
39948;SDS011;29070;48.102;-1.652;2023-05-10T00:07:52;12.27;;;1.50;;
39948;SDS011;29070;48.102;-1.652;2023-05-10T00:12:52;11.43;;;1.90;;
39948;SDS011;29070;48.102;-1.652;2023-05-10T00:17:53;7.30;;;1.23;;
39948;SDS011;29070;48.102;-1.652;2023-05-10T00:22:53;10.70;;;1.57;;
39948;SDS011;29070;48.102;-1.652;2023-05-10T00:27:54;7.43;;;1.80;;
39948;SDS011;29070;48.102;-1.652;2023-05-10T00:32:55;17.88;;;1.95;;
39948;SDS011;29070;48.102;-1.652;2023-05-10T00:37:55;8.17;;;1.53;;
39948;SDS011;29070;48.102;-1.652;2023-05-10T00:42:56;6.67;;;1.40;;
39948;SDS011;29070;48.102;-1.652;2023-05-10T00:47:58;7.07;;;1.70;;
39948;SDS011;29070;48.102;-1.652;2023-05-10T00:53:00;6.07;;;1.52;;
39948;SDS011;29070;48.102;-1.652;2023-05-10T00:58:02;10.25;;;1.63;;
39948;SDS011;29070;48.102;-1.652;2023-05-10T01:03:03;8.75;;;2.08;;
39948;SDS011;29070;48.102;-1.652;2023-05-10T01:08:03;8.80;;;1.77;;
39948;SDS011;29070;48.102;-1.652;2023-05-10T01:13:04;14.52;;;1.85;;
39948;SDS011;29070;48.102;-1.652;2023-05-10T01:18:05;23.92;;;1.88;;
39948;SDS011;29070;48.102;-1.652;2023-05-10T01:23:44;10.43;;;2.03;;
39948;SDS011;29070;48.102;-1.652;2023-05-10T01:33:44;12.10;;;1.63;;
39948;SDS011;29070;48.102;-1.652;2023-05-10T01:39:36;11.75;;;1.88;;
39948;SDS011;29070;48.102;-1.652;2023-05-10T01:49:47;14.35;;;2.15;;
39948;SDS011;29070;48.102;-1.652;2023-05-10T01:54:59;17.20;;;1.90;;
39948;SDS011;29070;48.102;-1.652;2023-05-10T02:00:02;12.65;;;1.85;;
39948;SDS011;29070;48.102;-1.652;2023-05-10T02:05:07;15.00;;;2.00;;
39948;SDS011;29070;48.102;-1.652;2023-05-10T02:10:09;14.80;;;1.92;;
39948;SDS011;29070;48.102;-1.652;2023-05-10T02:15:11;14.10;;;2.33;;
39948;SDS011;29070;48.102;-1.652;2023-05-10T02:20:14;11.15;;;2.28;;
39948;SDS011;29070;48.102;-1.652;2023-05-10T02:25:17;12.50;;;2.63;;
39948;SDS011;29070;48.102;-1.652;2023-05-10T02:30:19;16.52;;;1.98;;
39948;SDS011;29070;48.102;-1.652;2023-05-10T02:35:20;14.95;;;2.03;;
39948;SDS011;29070;48.102;-1.652;2023-05-10T02:40:22;12.60;;;1.92;;
39948;SDS011;29070;48.102;-1.652;2023-05-10T02:45:26;14.98;;;1.98;;
39948;SDS011;29070;48.102;-1.652;2023-05-10T02:50:29;18.67;;;1.80;;
39948;SDS011;29070;48.102;-1.652;2023-05-10T02:55:33;11.13;;;2.30;;
39948;SDS011;29070;48.102;-1.652;2023-05-10T03:00:37;23.25;;;2.08;;
39948;SDS011;29070;48.102;-1.652;2023-05-10T03:05:38;13.43;;;2.07;;
39948;SDS011;29070;48.102;-1.652;2023-05-10T03:10:41;15.30;;;3.03;;
39948;SDS011;29070;48.102;-1.652;2023-05-10T03:16:04;13.38;;;2.22;;
39948;SDS011;29070;48.102;-1.652;2023-05-10T03:21:08;15.77;;;1.83;;
39948;SDS011;29070;48.102;-1.652;2023-05-10T03:26:15;13.30;;;2.30;;
39948;SDS011;29070;48.102;-1.652;2023-05-10T03:31:20;13.02;;;1.70;;
39948;SDS011;29070;48.102;-1.652;2023-05-10T03:36:21;13.05;;;2.40;;
39948;SDS011;29070;48.102;-1.652;2023-05-10T03:41:21;11.83;;;2.00;;
39948;SDS011;29070;48.102;-1.652;2023-05-10T03:46:21;13.67;;;2.23;;
39948;SDS011;29070;48.102;-1.652;2023-05-10T03:51:22;16.47;;;2.80;;
39948;SDS011;29070;48.102;-1.652;2023-05-10T03:56:22;11.33;;;3.00;;
39948;SDS011;29070;48.102;-1.652;2023-05-10T04:01:22;17.43;;;2.70;;
39948;SDS011;29070;48.102;-1.652;2023-05-10T04:06:23;11.85;;;2.72;;
39948;SDS011;29070;48.102;-1.652;2023-05-10T04:11:23;10.33;;;2.10;;
39948;SDS011;29070;48.102;-1.652;2023-05-10T04:16:24;12.90;;;2.78;;
39948;SDS011;29070;48.102;-1.652;2023-05-10T04:21:25;13.43;;;1.63;;
39948;SDS011;29070;48.102;-1.652;2023-05-10T04:26:25;23.90;;;2.67;;
39948;SDS011;29070;48.102;-1.652;2023-05-10T04:31:25;13.33;;;2.43;;
39948;SDS011;29070;48.102;-1.652;2023-05-10T04:36:27;14.13;;;2.33;;
39948;SDS011;29070;48.102;-1.652;2023-05-10T04:41:28;15.77;;;2.70;;
39948;SDS011;29070;48.102;-1.652;2023-05-10T04:46:29;16.05;;;2.08;;
39948;SDS011;29070;48.102;-1.652;2023-05-10T04:51:29;16.03;;;2.30;;
39948;SDS011;29070;48.102;-1.652;2023-05-10T04:56:30;11.00;;;2.00;;
39948;SDS011;29070;48.102;-1.652;2023-05-10T05:01:30;15.53;;;2.13;;
39948;SDS011;29070;48.102;-1.652;2023-05-10T05:06:31;8.33;;;1.97;;
39948;SDS011;29070;48.102;-1.652;2023-05-10T05:11:31;11.40;;;2.13;;
39948;SDS011;29070;48.102;-1.652;2023-05-10T05:16:31;13.57;;;2.80;;
39948;SDS011;29070;48.102;-1.652;2023-05-10T05:21:32;10.75;;;2.58;;
39948;SDS011;29070;48.102;-1.652;2023-05-10T05:26:32;14.10;;;2.53;;
39948;SDS011;29070;48.102;-1.652;2023-05-10T05:31:33;16.87;;;3.10;;
39948;SDS011;29070;48.102;-1.652;2023-05-10T05:36:35;16.00;;;3.00;;
39948;SDS011;29070;48.102;-1.652;2023-05-10T05:41:38;17.00;;;2.50;;
39948;SDS011;29070;48.102;-1.652;2023-05-10T05:46:38;17.80;;;2.30;;
39948;SDS011;29070;48.102;-1.652;2023-05-10T05:51:38;15.80;;;2.83;;
39948;SDS011;29070;48.102;-1.652;2023-05-10T05:56:39;18.83;;;2.83;;
39948;SDS011;29070;48.102;-1.652;2023-05-10T06:01:39;13.80;;;2.50;;
39948;SDS011;29070;48.102;-1.652;2023-05-10T06:06:40;16.45;;;2.65;;
39948;SDS011;29070;48.102;-1.652;2023-05-10T06:11:40;15.10;;;3.17;;
39948;SDS011;29070;48.102;-1.652;2023-05-10T06:16:40;10.67;;;2.00;;
39948;SDS011;29070;48.102;-1.652;2023-05-10T06:21:41;16.10;;;2.57;;
39948;SDS011;29070;48.102;-1.652;2023-05-10T06:26:41;14.37;;;2.50;;
39948;SDS011;29070;48.102;-1.652;2023-05-10T06:31:41;10.37;;;3.07;;
39948;SDS011;29070;48.102;-1.652;2023-05-10T06:36:42;9.23;;;2.10;;
39948;SDS011;29070;48.102;-1.652;2023-05-10T06:41:42;21.23;;;2.33;;
39948;SDS011;29070;48.102;-1.652;2023-05-10T06:46:42;13.38;;;2.22;;
39948;SDS011;29070;48.102;-1.652;2023-05-10T06:51:43;11.80;;;2.17;;
39948;SDS011;29070;48.102;-1.652;2023-05-10T06:56:43;17.85;;;3.03;;
39948;SDS011;29070;48.102;-1.652;2023-05-10T07:01:44;17.53;;;2.07;;
39948;SDS011;29070;48.102;-1.652;2023-05-10T07:06:44;13.13;;;2.40;;
39948;SDS011;29070;48.102;-1.652;2023-05-10T07:11:46;15.18;;;2.53;;
39948;SDS011;29070;48.102;-1.652;2023-05-10T07:16:46;18.30;;;2.83;;
39948;SDS011;29070;48.102;-1.652;2023-05-10T07:21:47;16.10;;;2.15;;
39948;SDS011;29070;48.102;-1.652;2023-05-10T07:26:47;13.43;;;3.42;;
39948;SDS011;29070;48.102;-1.652;2023-05-10T07:31:48;20.00;;;2.77;;
39948;SDS011;29070;48.102;-1.652;2023-05-10T07:36:48;14.00;;;2.30;;
39948;SDS011;29070;48.102;-1.652;2023-05-10T07:41:48;12.00;;;2.30;;
39948;SDS011;29070;48.102;-1.652;2023-05-10T07:46:49;21.33;;;2.90;;
39948;SDS011;29070;48.102;-1.652;2023-05-10T07:51:49;10.20;;;2.47;;
39948;SDS011;29070;48.102;-1.652;2023-05-10T07:56:50;7.05;;;1.75;;
39948;SDS011;29070;48.102;-1.652;2023-05-10T08:01:50;10.35;;;2.58;;
39948;SDS011;29070;48.102;-1.652;2023-05-10T08:06:51;10.23;;;1.87;;
39948;SDS011;29070;48.102;-1.652;2023-05-10T08:11:51;11.80;;;2.20;;
39948;SDS011;29070;48.102;-1.652;2023-05-10T08:16:51;13.67;;;2.43;;
39948;SDS011;29070;48.102;-1.652;2023-05-10T08:21:52;11.13;;;1.80;;
39948;SDS011;29070;48.102;-1.652;2023-05-10T08:26:53;16.10;;;2.80;;
39948;SDS011;29070;48.102;-1.652;2023-05-10T08:31:53;15.30;;;2.07;;
39948;SDS011;29070;48.102;-1.652;2023-05-10T08:36:54;6.97;;;1.90;;
39948;SDS011;29070;48.102;-1.652;2023-05-10T08:41:54;8.80;;;1.87;;
39948;SDS011;29070;48.102;-1.652;2023-05-10T08:47:05;11.25;;;2.17;;
39948;SDS011;29070;48.102;-1.652;2023-05-10T08:52:08;12.00;;;2.08;;
39948;SDS011;29070;48.102;-1.652;2023-05-10T08:57:13;8.27;;;1.50;;
39948;SDS011;29070;48.102;-1.652;2023-05-10T09:02:13;6.05;;;1.85;;
39948;SDS011;29070;48.102;-1.652;2023-05-10T09:07:13;6.40;;;2.28;;
39948;SDS011;29070;48.102;-1.652;2023-05-10T09:12:14;8.98;;;1.90;;
39948;SDS011;29070;48.102;-1.652;2023-05-10T09:17:16;6.63;;;1.55;;
39948;SDS011;29070;48.102;-1.652;2023-05-10T09:22:16;8.30;;;1.35;;
39948;SDS011;29070;48.102;-1.652;2023-05-10T09:27:17;7.15;;;1.60;;
39948;SDS011;29070;48.102;-1.652;2023-05-10T09:32:40;12.50;;;2.75;;
39948;SDS011;29070;48.102;-1.652;2023-05-10T09:37:46;12.77;;;1.70;;
39948;SDS011;29070;48.102;-1.652;2023-05-10T09:47:55;12.70;;;2.00;;
39948;SDS011;29070;48.102;-1.652;2023-05-10T09:57:59;8.30;;;1.88;;
39948;SDS011;29070;48.102;-1.652;2023-05-10T10:03:00;10.05;;;2.10;;
39948;SDS011;29070;48.102;-1.652;2023-05-10T10:08:04;8.95;;;2.92;;
39948;SDS011;29070;48.102;-1.652;2023-05-10T10:13:05;8.75;;;1.80;;
39948;SDS011;29070;48.102;-1.652;2023-05-10T10:18:06;10.55;;;1.80;;
39948;SDS011;29070;48.102;-1.652;2023-05-10T10:23:12;9.18;;;2.03;;
39948;SDS011;29070;48.102;-1.652;2023-05-10T10:33:42;8.73;;;1.55;;
39948;SDS011;29070;48.102;-1.652;2023-05-10T10:43:47;5.55;;;1.40;;
39948;SDS011;29070;48.102;-1.652;2023-05-10T10:48:48;7.07;;;1.33;;
39948;SDS011;29070;48.102;-1.652;2023-05-10T10:54:11;11.35;;;1.75;;
39948;SDS011;29070;48.102;-1.652;2023-05-10T10:59:11;4.93;;;1.23;;
39948;SDS011;29070;48.102;-1.652;2023-05-10T11:09:12;7.63;;;1.02;;
39948;SDS011;29070;48.102;-1.652;2023-05-10T11:14:13;6.50;;;1.23;;
39948;SDS011;29070;48.102;-1.652;2023-05-10T11:19:14;5.27;;;0.97;;
39948;SDS011;29070;48.102;-1.652;2023-05-10T11:24:17;6.43;;;0.95;;
39948;SDS011;29070;48.102;-1.652;2023-05-10T11:29:20;3.92;;;0.90;;
39948;SDS011;29070;48.102;-1.652;2023-05-10T11:34:27;3.15;;;1.13;;
39948;SDS011;29070;48.102;-1.652;2023-05-10T11:39:30;3.42;;;0.77;;
39948;SDS011;29070;48.102;-1.652;2023-05-10T11:44:32;6.75;;;1.17;;
39948;SDS011;29070;48.102;-1.652;2023-05-10T11:49:32;1.70;;;0.70;;
39948;SDS011;29070;48.102;-1.652;2023-05-10T11:54:33;3.00;;;0.97;;
39948;SDS011;29070;48.102;-1.652;2023-05-10T11:59:34;2.45;;;0.70;;
39948;SDS011;29070;48.102;-1.652;2023-05-10T12:04:36;7.85;;;1.35;;
39948;SDS011;29070;48.102;-1.652;2023-05-10T12:09:37;4.72;;;1.00;;
39948;SDS011;29070;48.102;-1.652;2023-05-10T12:14:48;6.55;;;1.80;;
39948;SDS011;29070;48.102;-1.652;2023-05-10T12:19:50;4.28;;;0.85;;
39948;SDS011;29070;48.102;-1.652;2023-05-10T12:24:50;3.27;;;0.97;;
39948;SDS011;29070;48.102;-1.652;2023-05-10T12:29:50;3.97;;;1.00;;
39948;SDS011;29070;48.102;-1.652;2023-05-10T12:34:51;8.03;;;0.90;;
39948;SDS011;29070;48.102;-1.652;2023-05-10T12:39:53;2.95;;;0.63;;
39948;SDS011;29070;48.102;-1.652;2023-05-10T12:44:56;5.90;;;1.03;;
39948;SDS011;29070;48.102;-1.652;2023-05-10T12:49:57;4.22;;;1.77;;
39948;SDS011;29070;48.102;-1.652;2023-05-10T12:54:58;3.28;;;1.10;;
39948;SDS011;29070;48.102;-1.652;2023-05-10T12:59:59;5.95;;;1.42;;
39948;SDS011;29070;48.102;-1.652;2023-05-10T13:05:00;5.47;;;1.03;;
39948;SDS011;29070;48.102;-1.652;2023-05-10T13:10:00;7.40;;;1.00;;
39948;SDS011;29070;48.102;-1.652;2023-05-10T13:15:01;6.13;;;1.43;;
39948;SDS011;29070;48.102;-1.652;2023-05-10T13:20:03;5.72;;;1.33;;
39948;SDS011;29070;48.102;-1.652;2023-05-10T13:25:03;10.73;;;1.52;;
39948;SDS011;29070;48.102;-1.652;2023-05-10T13:30:04;4.53;;;1.45;;
39948;SDS011;29070;48.102;-1.652;2023-05-10T13:35:05;6.78;;;1.00;;
39948;SDS011;29070;48.102;-1.652;2023-05-10T13:40:06;3.97;;;0.90;;
39948;SDS011;29070;48.102;-1.652;2023-05-10T13:45:07;3.38;;;0.73;;
39948;SDS011;29070;48.102;-1.652;2023-05-10T13:50:07;4.18;;;0.80;;
39948;SDS011;29070;48.102;-1.652;2023-05-10T13:55:08;2.15;;;0.70;;
39948;SDS011;29070;48.102;-1.652;2023-05-10T14:00:08;2.88;;;0.70;;
39948;SDS011;29070;48.102;-1.652;2023-05-10T14:05:09;1.20;;;0.52;;
39948;SDS011;29070;48.102;-1.652;2023-05-10T14:10:10;2.57;;;0.70;;
39948;SDS011;29070;48.102;-1.652;2023-05-10T14:15:13;7.07;;;1.00;;
39948;SDS011;29070;48.102;-1.652;2023-05-10T14:20:13;3.95;;;0.60;;
39948;SDS011;29070;48.102;-1.652;2023-05-10T14:25:13;3.90;;;0.90;;
39948;SDS011;29070;48.102;-1.652;2023-05-10T14:30:14;5.85;;;0.80;;
39948;SDS011;29070;48.102;-1.652;2023-05-10T14:35:14;2.53;;;0.70;;
39948;SDS011;29070;48.102;-1.652;2023-05-10T14:40:15;3.10;;;0.90;;
39948;SDS011;29070;48.102;-1.652;2023-05-10T14:45:18;5.07;;;0.90;;
39948;SDS011;29070;48.102;-1.652;2023-05-10T14:50:19;5.72;;;1.13;;
39948;SDS011;29070;48.102;-1.652;2023-05-10T14:55:19;5.20;;;1.10;;
39948;SDS011;29070;48.102;-1.652;2023-05-10T15:00:20;4.07;;;0.80;;
39948;SDS011;29070;48.102;-1.652;2023-05-10T15:05:20;4.78;;;1.10;;
39948;SDS011;29070;48.102;-1.652;2023-05-10T15:10:21;3.92;;;0.85;;
39948;SDS011;29070;48.102;-1.652;2023-05-10T15:15:22;5.47;;;0.85;;
39948;SDS011;29070;48.102;-1.652;2023-05-10T15:20:22;5.23;;;1.20;;
39948;SDS011;29070;48.102;-1.652;2023-05-10T15:25:22;5.10;;;0.93;;
39948;SDS011;29070;48.102;-1.652;2023-05-10T15:30:23;4.15;;;1.02;;
39948;SDS011;29070;48.102;-1.652;2023-05-10T15:35:26;5.95;;;1.27;;
39948;SDS011;29070;48.102;-1.652;2023-05-10T15:40:27;11.50;;;1.30;;
39948;SDS011;29070;48.102;-1.652;2023-05-10T15:45:27;6.93;;;1.17;;
39948;SDS011;29070;48.102;-1.652;2023-05-10T15:50:29;5.55;;;1.17;;
39948;SDS011;29070;48.102;-1.652;2023-05-10T15:55:29;5.03;;;1.10;;
39948;SDS011;29070;48.102;-1.652;2023-05-10T16:00:30;3.17;;;1.30;;
39948;SDS011;29070;48.102;-1.652;2023-05-10T16:05:31;6.95;;;1.08;;
39948;SDS011;29070;48.102;-1.652;2023-05-10T16:10:32;9.25;;;1.50;;
39948;SDS011;29070;48.102;-1.652;2023-05-10T16:15:33;4.22;;;1.20;;
39948;SDS011;29070;48.102;-1.652;2023-05-10T16:20:33;5.07;;;1.50;;
39948;SDS011;29070;48.102;-1.652;2023-05-10T16:25:33;5.17;;;1.63;;
39948;SDS011;29070;48.102;-1.652;2023-05-10T16:30:34;15.80;;;4.82;;
39948;SDS011;29070;48.102;-1.652;2023-05-10T16:35:34;8.77;;;3.23;;
39948;SDS011;29070;48.102;-1.652;2023-05-10T16:40:35;8.43;;;3.30;;
39948;SDS011;29070;48.102;-1.652;2023-05-10T16:45:35;3.87;;;1.57;;
39948;SDS011;29070;48.102;-1.652;2023-05-10T16:50:36;8.13;;;1.87;;
39948;SDS011;29070;48.102;-1.652;2023-05-10T16:55:36;3.57;;;1.40;;
39948;SDS011;29070;48.102;-1.652;2023-05-10T17:00:36;5.93;;;1.90;;
39948;SDS011;29070;48.102;-1.652;2023-05-10T17:05:37;2.53;;;1.33;;
39948;SDS011;29070;48.102;-1.652;2023-05-10T17:10:40;4.60;;;1.10;;
39948;SDS011;29070;48.102;-1.652;2023-05-10T17:15:40;4.35;;;1.20;;
39948;SDS011;29070;48.102;-1.652;2023-05-10T17:20:42;17.33;;;6.93;;
39948;SDS011;29070;48.102;-1.652;2023-05-10T17:25:43;6.57;;;1.83;;
39948;SDS011;29070;48.102;-1.652;2023-05-10T17:30:43;9.03;;;2.60;;
39948;SDS011;29070;48.102;-1.652;2023-05-10T17:35:44;6.77;;;1.17;;
39948;SDS011;29070;48.102;-1.652;2023-05-10T17:40:45;3.55;;;0.90;;
39948;SDS011;29070;48.102;-1.652;2023-05-10T17:45:48;8.47;;;0.77;;
39948;SDS011;29070;48.102;-1.652;2023-05-10T17:50:49;2.65;;;1.05;;
39948;SDS011;29070;48.102;-1.652;2023-05-10T17:55:50;4.20;;;1.17;;
39948;SDS011;29070;48.102;-1.652;2023-05-10T18:00:51;3.30;;;1.15;;
39948;SDS011;29070;48.102;-1.652;2023-05-10T18:05:51;7.78;;;1.00;;
39948;SDS011;29070;48.102;-1.652;2023-05-10T18:10:52;8.07;;;1.42;;
39948;SDS011;29070;48.102;-1.652;2023-05-10T18:15:53;5.97;;;1.70;;
39948;SDS011;29070;48.102;-1.652;2023-05-10T18:20:53;10.83;;;1.87;;
39948;SDS011;29070;48.102;-1.652;2023-05-10T18:25:56;4.97;;;1.15;;
39948;SDS011;29070;48.102;-1.652;2023-05-10T18:30:57;5.57;;;1.45;;
39948;SDS011;29070;48.102;-1.652;2023-05-10T18:35:57;9.63;;;4.27;;
39948;SDS011;29070;48.102;-1.652;2023-05-10T18:40:57;36.87;;;23.83;;
39948;SDS011;29070;48.102;-1.652;2023-05-10T18:45:58;26.33;;;11.83;;
39948;SDS011;29070;48.102;-1.652;2023-05-10T18:50:58;8.07;;;1.93;;
39948;SDS011;29070;48.102;-1.652;2023-05-10T18:55:58;3.33;;;0.90;;
39948;SDS011;29070;48.102;-1.652;2023-05-10T19:00:59;2.40;;;0.80;;
39948;SDS011;29070;48.102;-1.652;2023-05-10T19:05:59;3.33;;;0.97;;
39948;SDS011;29070;48.102;-1.652;2023-05-10T19:10:59;1.37;;;0.63;;
39948;SDS011;29070;48.102;-1.652;2023-05-10T19:16:10;2.28;;;0.77;;
39948;SDS011;29070;48.102;-1.652;2023-05-10T19:21:11;2.25;;;1.00;;
39948;SDS011;29070;48.102;-1.652;2023-05-10T19:26:12;3.20;;;1.17;;
39948;SDS011;29070;48.102;-1.652;2023-05-10T19:31:12;4.47;;;1.30;;
39948;SDS011;29070;48.102;-1.652;2023-05-10T19:36:13;2.70;;;1.10;;
39948;SDS011;29070;48.102;-1.652;2023-05-10T19:41:13;7.83;;;1.40;;
39948;SDS011;29070;48.102;-1.652;2023-05-10T19:46:13;6.57;;;1.17;;
39948;SDS011;29070;48.102;-1.652;2023-05-10T19:51:14;4.30;;;1.57;;
39948;SDS011;29070;48.102;-1.652;2023-05-10T19:56:14;3.83;;;1.33;;
39948;SDS011;29070;48.102;-1.652;2023-05-10T20:01:17;3.17;;;1.50;;
39948;SDS011;29070;48.102;-1.652;2023-05-10T20:06:17;3.37;;;1.80;;
39948;SDS011;29070;48.102;-1.652;2023-05-10T20:11:17;3.13;;;1.27;;
39948;SDS011;29070;48.102;-1.652;2023-05-10T20:16:18;2.73;;;1.37;;
39948;SDS011;29070;48.102;-1.652;2023-05-10T20:21:18;8.37;;;1.67;;
39948;SDS011;29070;48.102;-1.652;2023-05-10T20:26:18;2.73;;;1.20;;
39948;SDS011;29070;48.102;-1.652;2023-05-10T20:31:19;3.43;;;1.27;;
39948;SDS011;29070;48.102;-1.652;2023-05-10T20:36:19;2.90;;;1.30;;
39948;SDS011;29070;48.102;-1.652;2023-05-10T20:41:19;4.10;;;1.40;;
39948;SDS011;29070;48.102;-1.652;2023-05-10T20:46:20;4.07;;;2.03;;
39948;SDS011;29070;48.102;-1.652;2023-05-10T20:51:22;2.95;;;1.75;;
39948;SDS011;29070;48.102;-1.652;2023-05-10T20:56:22;5.68;;;2.53;;
39948;SDS011;29070;48.102;-1.652;2023-05-10T21:01:23;24.10;;;10.10;;
39948;SDS011;29070;48.102;-1.652;2023-05-10T21:06:24;9.55;;;3.47;;
39948;SDS011;29070;48.102;-1.652;2023-05-10T21:11:24;4.50;;;1.52;;
39948;SDS011;29070;48.102;-1.652;2023-05-10T21:16:25;5.10;;;2.45;;
39948;SDS011;29070;48.102;-1.652;2023-05-10T21:21:25;4.80;;;1.87;;
39948;SDS011;29070;48.102;-1.652;2023-05-10T21:26:25;4.77;;;2.10;;
39948;SDS011;29070;48.102;-1.652;2023-05-10T21:31:26;2.90;;;1.60;;
39948;SDS011;29070;48.102;-1.652;2023-05-10T21:36:26;6.20;;;2.43;;
39948;SDS011;29070;48.102;-1.652;2023-05-10T21:41:27;4.80;;;1.75;;
39948;SDS011;29070;48.102;-1.652;2023-05-10T21:46:27;2.30;;;1.20;;
39948;SDS011;29070;48.102;-1.652;2023-05-10T21:51:28;5.63;;;1.48;;
39948;SDS011;29070;48.102;-1.652;2023-05-10T21:56:28;3.13;;;1.43;;
39948;SDS011;29070;48.102;-1.652;2023-05-10T22:01:29;3.40;;;1.53;;
39948;SDS011;29070;48.102;-1.652;2023-05-10T22:06:29;2.63;;;1.60;;
39948;SDS011;29070;48.102;-1.652;2023-05-10T22:11:31;4.55;;;1.60;;
39948;SDS011;29070;48.102;-1.652;2023-05-10T22:16:31;3.57;;;1.70;;
39948;SDS011;29070;48.102;-1.652;2023-05-10T22:21:31;3.70;;;1.63;;
39948;SDS011;29070;48.102;-1.652;2023-05-10T22:26:32;5.30;;;1.70;;
39948;SDS011;29070;48.102;-1.652;2023-05-10T22:31:32;2.83;;;1.60;;
39948;SDS011;29070;48.102;-1.652;2023-05-10T22:36:32;5.35;;;1.88;;
39948;SDS011;29070;48.102;-1.652;2023-05-10T22:41:33;4.47;;;1.70;;
39948;SDS011;29070;48.102;-1.652;2023-05-10T22:46:34;8.17;;;1.40;;
39948;SDS011;29070;48.102;-1.652;2023-05-10T22:51:35;3.33;;;1.60;;
39948;SDS011;29070;48.102;-1.652;2023-05-10T22:56:36;7.93;;;1.30;;
39948;SDS011;29070;48.102;-1.652;2023-05-10T23:01:36;2.17;;;0.90;;
39948;SDS011;29070;48.102;-1.652;2023-05-10T23:06:37;4.50;;;1.10;;
39948;SDS011;29070;48.102;-1.652;2023-05-10T23:11:38;3.03;;;0.80;;
39948;SDS011;29070;48.102;-1.652;2023-05-10T23:16:38;3.83;;;1.23;;
39948;SDS011;29070;48.102;-1.652;2023-05-10T23:21:39;5.80;;;1.23;;
39948;SDS011;29070;48.102;-1.652;2023-05-10T23:26:39;2.65;;;1.10;;
39948;SDS011;29070;48.102;-1.652;2023-05-10T23:31:40;2.70;;;0.77;;
39948;SDS011;29070;48.102;-1.652;2023-05-10T23:36:44;3.75;;;0.88;;
39948;SDS011;29070;48.102;-1.652;2023-05-10T23:41:44;3.87;;;1.03;;
39948;SDS011;29070;48.102;-1.652;2023-05-10T23:46:44;1.83;;;0.85;;
39948;SDS011;29070;48.102;-1.652;2023-05-10T23:51:45;3.97;;;1.15;;
39948;SDS011;29070;48.102;-1.652;2023-05-10T23:56:45;4.90;;;0.90;;
